Terminal Aerodrome Forecast
Issued by NWS

Home | Current Version | Previous Version | Text Only | Print | Product List | Glossary On
Versions: 1 2 3 4 5 6 7 8 9 10 11 12 13 14 15 16 17 18
653
FTUS44 KTSA 262340
TAFXNA
TAF
KXNA 262340Z 2700/2724 15010KT P6SM VCTS SCT090 BKN150CB
     FM270200 16010KT P6SM VCTS BKN050CB BKN070
      TEMPO 2703/2706 VRB12KT 4SM TSRA BKN035CB
     FM270600 17006KT P6SM VCTS SCT015 BKN035CB
     FM270800 VRB05KT 4SM BR VCSH BKN006 BKN015
     FM271900 32009KT P6SM BKN015 BKN025=

USA.gov is the U.S. government's official web portal to all federal, state and local government web resources and services.